Weather History for KDUX - January, 2013

Change the Weather History Date:

Friday, January 18, 2013

  Actual Average (KBGD) Record (KBGD)
Temperature  
Mean Temperature 44 °F 39 °F  
Max Temperature 57 °F 52 °F 71 °F (1982)
Min Temperature 30 °F 26 °F -3 °F (1984)
Degree Days  
Heating Degree Days 22 26  
Month to date heating degree days 486  
Since 1 July heating degree days 2023  
Cooling Degree Days 0 0  
Month to date cooling degree days 0  
Year to date cooling degree days 0  
Moisture  
Dew Point 23 °F    
Average Humidity 54    
Maximum Humidity 75    
Minimum Humidity 27    
Precipitation  
Precipitation 0.00 in 0.02 in 0.46 in (1990)
Month to date precipitation 0.29  
Year to date precipitation 0.29  
Snow  
Snow 0.00 in - 6.00 in (1987)
Month to date snowfall  
Since 1 July snowfall  
Snow Depth -    
Sea Level Pressure  
Sea Level Pressure 30.21 in    
Wind  
Wind Speed 15 mph (SW)    
Max Wind Speed 29 mph    
Max Gust Speed 36 mph    
Visibility 10 miles    
Events      
T = Trace of Precipitation, MM = Missing Value Source: NWS Daily Summary

Daily Weather History Graph

Daily Weather History Graph

Search for Another Location

Airport or City:

Trip Planner

Search our weather history database for the weather conditions in past years. The results will help you decide how hot, cold, wet, or windy it might be!

Date:

Astronomy

Jan. 18, 2013 Rise Set
Actual Time 7:56 AM CST 6:01 PM CST
Civil Twilight 7:28 AM CST 6:28 PM CST
Nautical Twilight 6:57 AM CST 7:00 PM CST
Astronomical Twilight 6:26 AM CST 7:30 PM CST
Moon 11:52 AM CST (1/18) 12:38 AM CST (1/18)
Length of Visible Light 10h 59m
Length of Day
10h 04m
Waxing Crescent, 47% of the Moon is Illuminated
Jan 18
Waxing Crescent
Jan 18
First Quarter
Jan 26
Full
Feb 3
Last Quarter
Feb 10
New

Hourly Weather History & Observations

Time (CST) Temp. Windchill Dew Point Humidity Pressure Visibility Wind Dir Wind Speed Gust Speed Precip Events Conditions
12:15 AM 30.2 °F 21.9 °F 21.2 °F 69% 30.39 in 10.0 mi South 9.2 mph - N/A   Clear
12:35 AM 30.2 °F 21.3 °F 21.2 °F 69% 30.38 in 10.0 mi SSW 10.4 mph - N/A   Clear
12:55 AM 33.8 °F 24.3 °F 23.0 °F 65% 30.37 in 10.0 mi SSW 13.8 mph - N/A   Clear
1:15 AM 32.0 °F 22.1 °F 23.0 °F 69% 30.37 in 10.0 mi SSW 13.8 mph - N/A   Clear
1:35 AM 32.0 °F 22.5 °F 23.0 °F 69% 30.36 in 10.0 mi SW 12.7 mph - N/A   Clear
1:55 AM 32.0 °F 21.6 °F 23.0 °F 69% 30.36 in 10.0 mi SW 15.0 mph - N/A   Clear
2:15 AM 33.8 °F 23.2 °F 23.0 °F 65% 30.36 in 10.0 mi SSW 17.3 mph - N/A   Clear
2:35 AM 32.0 °F 21.6 °F 23.0 °F 69% 30.36 in 10.0 mi SSW 15.0 mph - N/A   Clear
2:55 AM 32.0 °F 21.6 °F 23.0 °F 69% 30.35 in 10.0 mi SSW 15.0 mph - N/A   Clear
3:15 AM 32.0 °F 21.6 °F 23.0 °F 69% 30.35 in 10.0 mi SSW 15.0 mph - N/A   Clear
3:35 AM 32.0 °F 22.5 °F 23.0 °F 69% 30.34 in 10.0 mi SW 12.7 mph - N/A   Clear
3:55 AM 32.0 °F 22.5 °F 23.0 °F 69% 30.33 in 10.0 mi SW 12.7 mph - N/A   Clear
4:15 AM 32.0 °F 20.5 °F 23.0 °F 69% 30.31 in 10.0 mi SSW 18.4 mph - N/A   Clear
4:35 AM 32.0 °F 21.2 °F 23.0 °F 69% 30.31 in 10.0 mi SSW 16.1 mph - N/A   Clear
4:55 AM 32.0 °F 21.6 °F 23.0 °F 69% 30.31 in 10.0 mi SSW 15.0 mph - N/A   Clear
5:15 AM 32.0 °F 22.5 °F 23.0 °F 69% 30.30 in 10.0 mi SSW 12.7 mph - N/A   Clear
5:35 AM 32.0 °F 21.2 °F 23.0 °F 69% 30.29 in 10.0 mi SW 16.1 mph - N/A   Clear
5:55 AM 32.0 °F 20.8 °F 23.0 °F 69% 30.28 in 10.0 mi SSW 17.3 mph - N/A   Clear
6:15 AM 32.0 °F 20.8 °F 23.0 °F 69% 30.28 in 10.0 mi SSW 17.3 mph - N/A   Clear
6:35 AM 32.0 °F 21.2 °F 23.0 °F 69% 30.27 in 10.0 mi SSW 16.1 mph - N/A   Clear
6:55 AM 32.0 °F 22.1 °F 23.0 °F 69% 30.27 in 10.0 mi SSW 13.8 mph - N/A   Clear
7:15 AM 30.2 °F 20.8 °F 23.0 °F 75% 30.27 in 10.0 mi SSW 11.5 mph - N/A   Clear
7:35 AM 30.2 °F 20.2 °F 23.0 °F 75% 30.27 in 10.0 mi SSW 12.7 mph - N/A   Clear
7:55 AM 30.2 °F 19.8 °F 23.0 °F 75% 30.27 in 10.0 mi SSW 13.8 mph - N/A   Clear
8:15 AM 32.0 °F 21.2 °F 23.0 °F 69% 30.27 in 10.0 mi SSW 16.1 mph - N/A   Clear
8:35 AM 32.0 °F 21.2 °F 23.0 °F 69% 30.27 in 10.0 mi SSW 16.1 mph - N/A   Clear
8:55 AM 33.8 °F 23.2 °F 24.8 °F 70% 30.27 in 10.0 mi SSW 17.3 mph - N/A   Clear
9:15 AM 35.6 °F 25.2 °F 24.8 °F 65% 30.27 in 10.0 mi SSW 18.4 mph - N/A   Clear
9:35 AM 39.2 °F 29.6 °F 26.6 °F 61% 30.27 in 10.0 mi SSW 19.6 mph - N/A   Clear
9:55 AM 41.0 °F 31.4 °F 26.6 °F 57% 30.27 in 10.0 mi SSW 21.9 mph 26.5 mph N/A   Clear
10:15 AM 42.8 °F 34.0 °F 26.6 °F 53% 30.27 in 10.0 mi SSW 20.7 mph 26.5 mph N/A   Clear
10:35 AM 44.6 °F 35.5 °F 26.6 °F 49% 30.27 in 10.0 mi SW 25.3 mph 33.4 mph N/A   Clear
10:55 AM 46.4 °F 37.4 °F 26.6 °F 46% 30.27 in 10.0 mi SW 28.8 mph 32.2 mph N/A   Clear
11:15 AM 50.0 °F - 26.6 °F 40% 30.27 in 10.0 mi SW 26.5 mph 33.4 mph N/A   Clear
11:35 AM 50.0 °F - 26.6 °F 40% 30.25 in 10.0 mi SW 28.8 mph 32.2 mph N/A   Clear
11:55 AM 51.8 °F - 26.6 °F 38% 30.24 in 10.0 mi SW 28.8 mph 35.7 mph N/A   Clear
12:15 PM 51.8 °F - 26.6 °F 38% 30.22 in 10.0 mi SW 26.5 mph 34.5 mph N/A   Clear
12:35 PM 53.6 °F - 26.6 °F 35% 30.20 in 10.0 mi SW 25.3 mph 32.2 mph N/A   Clear
12:55 PM 53.6 °F - 23.0 °F 30% 30.19 in 10.0 mi SW 28.8 mph 35.7 mph N/A   Clear
1:15 PM 55.4 °F - 24.8 °F 31% 30.18 in 10.0 mi WSW 26.5 mph 32.2 mph N/A   Clear
1:35 PM 55.4 °F - 24.8 °F 31% 30.16 in 10.0 mi SW 26.5 mph 35.7 mph N/A   Clear
1:55 PM 55.4 °F - 23.0 °F 29% 30.15 in 10.0 mi SW 25.3 mph - N/A   Clear
2:15 PM 55.4 °F - 23.0 °F 29% 30.14 in 10.0 mi SW 24.2 mph 31.1 mph N/A   Clear
2:35 PM 57.2 °F - 23.0 °F 27% 30.13 in 10.0 mi SW 24.2 mph 31.1 mph N/A   Clear
2:55 PM 57.2 °F - 23.0 °F 27% 30.13 in 10.0 mi SW 20.7 mph 32.2 mph N/A   Clear
3:15 PM 57.2 °F - 23.0 °F 27% 30.12 in 10.0 mi SW 26.5 mph 29.9 mph N/A   Clear
3:35 PM 57.2 °F - 23.0 °F 27% 30.12 in 10.0 mi WSW 21.9 mph 27.6 mph N/A   Clear
3:55 PM 57.2 °F - 23.0 °F 27% 30.12 in 10.0 mi WSW 20.7 mph 27.6 mph N/A   Clear
4:15 PM 57.2 °F - 23.0 °F 27% 30.12 in 10.0 mi WSW 19.6 mph - N/A   Clear
4:35 PM 57.2 °F - 23.0 °F 27% 30.11 in 10.0 mi WSW 16.1 mph - N/A   Clear
4:55 PM 55.4 °F - 23.0 °F 29% 30.11 in 10.0 mi WSW 16.1 mph - N/A   Clear
5:15 PM 55.4 °F - 23.0 °F 29% 30.11 in 10.0 mi WSW 13.8 mph - N/A   Clear
5:35 PM 51.8 °F - 23.0 °F 33% 30.11 in 10.0 mi SW 11.5 mph - N/A   Clear
5:55 PM 48.2 °F - 23.0 °F 37% 30.11 in 10.0 mi SW 9.2 mph - N/A   Clear
6:15 PM 44.6 °F 40.2 °F 21.2 °F 39% 30.11 in 10.0 mi SW 8.1 mph - N/A   Clear
6:35 PM 41.0 °F 35.8 °F 21.2 °F 45% 30.11 in 10.0 mi SW 8.1 mph - N/A   Clear
6:55 PM 37.4 °F 30.3 °F 21.2 °F 52% 30.11 in 10.0 mi SW 10.4 mph - N/A   Clear
7:15 PM 37.4 °F 29.8 °F 21.2 °F 52% 30.11 in 10.0 mi SW 11.5 mph - N/A   Clear
7:35 PM 37.4 °F 30.3 °F 21.2 °F 52% 30.11 in 10.0 mi SW 10.4 mph - N/A   Clear
7:55 PM 35.6 °F 27.5 °F 21.2 °F 56% 30.11 in 10.0 mi SW 11.5 mph - N/A   Clear
8:15 PM 37.4 °F 29.8 °F 21.2 °F 52% 30.11 in 10.0 mi SW 11.5 mph - N/A   Clear
8:35 PM 35.6 °F 28.0 °F 21.2 °F 56% 30.11 in 10.0 mi SW 10.4 mph - N/A   Clear
8:55 PM 35.6 °F 28.6 °F 21.2 °F 56% 30.11 in 10.0 mi SW 9.2 mph - N/A   Clear
9:15 PM 35.6 °F 27.5 °F 23.0 °F 60% 30.11 in 10.0 mi SW 11.5 mph - N/A   Clear
9:35 PM 35.6 °F 28.0 °F 23.0 °F 60% 30.11 in 10.0 mi SSW 10.4 mph - N/A   Clear
9:55 PM 35.6 °F 27.5 °F 23.0 °F 60% 30.11 in 10.0 mi SW 11.5 mph - N/A   Clear
10:15 PM 35.6 °F 27.1 °F 23.0 °F 60% 30.11 in 10.0 mi SW 12.7 mph - N/A   Clear
10:35 PM 35.6 °F 27.1 °F 23.0 °F 60% 30.11 in 10.0 mi SW 12.7 mph - N/A   Clear
10:55 PM 35.6 °F 28.0 °F 23.0 °F 60% 30.10 in 10.0 mi SW 10.4 mph - N/A   Clear
11:15 PM 33.8 °F 24.8 °F 23.0 °F 65% 30.09 in 10.0 mi SW 12.7 mph - N/A   Clear
11:35 PM 33.8 °F 24.8 °F 21.2 °F 60% 30.08 in 10.0 mi SW 12.7 mph - N/A   Clear
11:55 PM 33.8 °F 24.8 °F 21.2 °F 60% 30.08 in 10.0 mi SW 12.7 mph - N/A   Clear